sensor_id;sensor_type;location;lat;lon;timestamp;temperature;humidity
8994;DHT22;4532;50.886;4.700;2023-02-11T00:01:35;9.30;99.90
8994;DHT22;4532;50.886;4.700;2023-02-11T00:04:05;9.30;99.90
8994;DHT22;4532;50.886;4.700;2023-02-11T00:06:38;9.30;99.90
8994;DHT22;4532;50.886;4.700;2023-02-11T00:09:08;9.30;99.90
8994;DHT22;4532;50.886;4.700;2023-02-11T00:11:38;9.30;99.90
8994;DHT22;4532;50.886;4.700;2023-02-11T00:14:08;9.30;99.90
8994;DHT22;4532;50.886;4.700;2023-02-11T00:16:41;9.20;99.90
8994;DHT22;4532;50.886;4.700;2023-02-11T00:19:09;9.20;99.90
8994;DHT22;4532;50.886;4.700;2023-02-11T00:21:41;9.10;99.90
8994;DHT22;4532;50.886;4.700;2023-02-11T00:24:08;9.10;99.90
8994;DHT22;4532;50.886;4.700;2023-02-11T00:26:36;9.10;99.90
8994;DHT22;4532;50.886;4.700;2023-02-11T00:29:05;9.10;99.90
8994;DHT22;4532;50.886;4.700;2023-02-11T00:31:33;9.10;99.90
8994;DHT22;4532;50.886;4.700;2023-02-11T00:34:02;9.10;99.90
8994;DHT22;4532;50.886;4.700;2023-02-11T00:36:34;9.10;99.90
8994;DHT22;4532;50.886;4.700;2023-02-11T00:39:01;9.00;99.90
8994;DHT22;4532;50.886;4.700;2023-02-11T00:41:31;9.00;99.90
8994;DHT22;4532;50.886;4.700;2023-02-11T00:44:01;9.00;99.90
8994;DHT22;4532;50.886;4.700;2023-02-11T00:46:33;9.00;99.90
8994;DHT22;4532;50.886;4.700;2023-02-11T00:49:00;9.00;99.90
8994;DHT22;4532;50.886;4.700;2023-02-11T00:51:28;9.00;99.90
8994;DHT22;4532;50.886;4.700;2023-02-11T00:53:57;8.90;99.90
8994;DHT22;4532;50.886;4.700;2023-02-11T00:56:24;8.90;99.90
8994;DHT22;4532;50.886;4.700;2023-02-11T00:58:54;8.90;99.90
8994;DHT22;4532;50.886;4.700;2023-02-11T01:01:24;8.90;99.90
8994;DHT22;4532;50.886;4.700;2023-02-11T01:03:51;8.90;99.90
8994;DHT22;4532;50.886;4.700;2023-02-11T01:06:18;8.90;99.90
8994;DHT22;4532;50.886;4.700;2023-02-11T01:08:45;8.90;99.90
8994;DHT22;4532;50.886;4.700;2023-02-11T01:11:18;8.90;99.90
8994;DHT22;4532;50.886;4.700;2023-02-11T01:13:49;8.80;99.90
8994;DHT22;4532;50.886;4.700;2023-02-11T01:16:18;8.80;99.90
8994;DHT22;4532;50.886;4.700;2023-02-11T01:18:46;8.80;99.90
8994;DHT22;4532;50.886;4.700;2023-02-11T01:21:15;8.80;99.90
8994;DHT22;4532;50.886;4.700;2023-02-11T01:23:48;8.70;99.90
8994;DHT22;4532;50.886;4.700;2023-02-11T01:26:15;8.70;99.90
8994;DHT22;4532;50.886;4.700;2023-02-11T01:28:43;8.70;99.90
8994;DHT22;4532;50.886;4.700;2023-02-11T01:31:10;8.70;99.90
8994;DHT22;4532;50.886;4.700;2023-02-11T01:33:40;8.70;99.90
8994;DHT22;4532;50.886;4.700;2023-02-11T01:36:07;8.70;99.90
8994;DHT22;4532;50.886;4.700;2023-02-11T01:38:35;8.70;99.90
8994;DHT22;4532;50.886;4.700;2023-02-11T01:41:05;8.70;99.90
8994;DHT22;4532;50.886;4.700;2023-02-11T01:43:38;8.70;99.90
8994;DHT22;4532;50.886;4.700;2023-02-11T01:46:33;8.70;99.90
8994;DHT22;4532;50.886;4.700;2023-02-11T01:49:19;8.70;99.90
8994;DHT22;4532;50.886;4.700;2023-02-11T01:52:00;8.70;99.90
8994;DHT22;4532;50.886;4.700;2023-02-11T01:54:32;8.70;99.90
8994;DHT22;4532;50.886;4.700;2023-02-11T01:57:24;8.70;99.90
8994;DHT22;4532;50.886;4.700;2023-02-11T02:03:10;8.70;99.90
8994;DHT22;4532;50.886;4.700;2023-02-11T02:10:46;8.70;99.90
8994;DHT22;4532;50.886;4.700;2023-02-11T02:13:18;8.70;99.90
8994;DHT22;4532;50.886;4.700;2023-02-11T02:15:56;8.70;99.90
8994;DHT22;4532;50.886;4.700;2023-02-11T02:18:47;8.70;99.90
8994;DHT22;4532;50.886;4.700;2023-02-11T02:38:50;8.80;99.90
8994;DHT22;4532;50.886;4.700;2023-02-11T02:41:27;8.80;99.90
8994;DHT22;4532;50.886;4.700;2023-02-11T02:43:58;8.90;99.90
8994;DHT22;4532;50.886;4.700;2023-02-11T02:46:33;8.90;99.90
8994;DHT22;4532;50.886;4.700;2023-02-11T02:49:08;8.90;99.90
8994;DHT22;4532;50.886;4.700;2023-02-11T02:51:58;8.90;99.90
8994;DHT22;4532;50.886;4.700;2023-02-11T02:55:05;9.00;99.90
8994;DHT22;4532;50.886;4.700;2023-02-11T03:00:08;9.00;99.90
8994;DHT22;4532;50.886;4.700;2023-02-11T03:02:49;9.00;99.90
8994;DHT22;4532;50.886;4.700;2023-02-11T03:11:17;9.00;99.90
8994;DHT22;4532;50.886;4.700;2023-02-11T03:13:46;9.00;99.90
8994;DHT22;4532;50.886;4.700;2023-02-11T03:16:24;9.00;99.90
8994;DHT22;4532;50.886;4.700;2023-02-11T03:19:00;9.10;99.90
8994;DHT22;4532;50.886;4.700;2023-02-11T03:21:32;9.10;99.90
8994;DHT22;4532;50.886;4.700;2023-02-11T03:24:06;9.10;99.90
8994;DHT22;4532;50.886;4.700;2023-02-11T03:26:44;9.10;99.90
8994;DHT22;4532;50.886;4.700;2023-02-11T03:32:26;9.10;99.90
8994;DHT22;4532;50.886;4.700;2023-02-11T03:34:56;9.20;99.90
8994;DHT22;4532;50.886;4.700;2023-02-11T03:40:13;9.20;99.90
8994;DHT22;4532;50.886;4.700;2023-02-11T03:42:59;9.20;99.90
8994;DHT22;4532;50.886;4.700;2023-02-11T03:45:29;9.20;99.90
8994;DHT22;4532;50.886;4.700;2023-02-11T03:48:21;9.20;99.90
8994;DHT22;4532;50.886;4.700;2023-02-11T03:50:55;9.20;99.90
8994;DHT22;4532;50.886;4.700;2023-02-11T03:53:24;9.20;99.90
8994;DHT22;4532;50.886;4.700;2023-02-11T03:55:56;9.20;99.90
8994;DHT22;4532;50.886;4.700;2023-02-11T03:58:30;9.20;99.90
8994;DHT22;4532;50.886;4.700;2023-02-11T04:00:57;9.20;99.90
8994;DHT22;4532;50.886;4.700;2023-02-11T04:03:25;9.20;99.90
8994;DHT22;4532;50.886;4.700;2023-02-11T04:05:54;9.20;99.90
8994;DHT22;4532;50.886;4.700;2023-02-11T04:08:24;9.30;99.90
8994;DHT22;4532;50.886;4.700;2023-02-11T04:10:51;9.30;99.90
8994;DHT22;4532;50.886;4.700;2023-02-11T04:13:21;9.30;99.90
8994;DHT22;4532;50.886;4.700;2023-02-11T04:15:48;9.30;99.90
8994;DHT22;4532;50.886;4.700;2023-02-11T04:18:17;9.30;99.90
8994;DHT22;4532;50.886;4.700;2023-02-11T04:20:45;9.30;99.90
8994;DHT22;4532;50.886;4.700;2023-02-11T04:23:12;9.30;99.90
8994;DHT22;4532;50.886;4.700;2023-02-11T04:25:40;9.30;99.90
8994;DHT22;4532;50.886;4.700;2023-02-11T04:28:08;9.30;99.90
8994;DHT22;4532;50.886;4.700;2023-02-11T04:30:37;9.40;99.90
8994;DHT22;4532;50.886;4.700;2023-02-11T04:33:05;9.40;99.90
8994;DHT22;4532;50.886;4.700;2023-02-11T04:35:34;9.40;99.90
8994;DHT22;4532;50.886;4.700;2023-02-11T04:38:06;9.40;99.90
8994;DHT22;4532;50.886;4.700;2023-02-11T04:40:33;9.40;99.90
8994;DHT22;4532;50.886;4.700;2023-02-11T04:43:00;9.40;99.90
8994;DHT22;4532;50.886;4.700;2023-02-11T04:45:30;9.40;99.90
8994;DHT22;4532;50.886;4.700;2023-02-11T04:48:03;9.40;99.90
8994;DHT22;4532;50.886;4.700;2023-02-11T04:50:35;9.40;99.90
8994;DHT22;4532;50.886;4.700;2023-02-11T04:53:04;9.40;99.90
8994;DHT22;4532;50.886;4.700;2023-02-11T04:55:31;9.40;99.90
8994;DHT22;4532;50.886;4.700;2023-02-11T04:58:03;9.40;99.90
8994;DHT22;4532;50.886;4.700;2023-02-11T05:00:30;9.40;99.90
8994;DHT22;4532;50.886;4.700;2023-02-11T05:03:02;9.40;99.90
8994;DHT22;4532;50.886;4.700;2023-02-11T05:05:29;9.40;99.90
8994;DHT22;4532;50.886;4.700;2023-02-11T05:07:58;9.40;99.90
8994;DHT22;4532;50.886;4.700;2023-02-11T05:10:28;9.40;99.90
8994;DHT22;4532;50.886;4.700;2023-02-11T05:12:58;9.40;99.90
8994;DHT22;4532;50.886;4.700;2023-02-11T05:15:30;9.40;99.90
8994;DHT22;4532;50.886;4.700;2023-02-11T05:17:59;9.40;99.90
8994;DHT22;4532;50.886;4.700;2023-02-11T05:20:29;9.40;99.90
8994;DHT22;4532;50.886;4.700;2023-02-11T05:22:56;9.30;99.90
8994;DHT22;4532;50.886;4.700;2023-02-11T05:25:28;9.30;99.90
8994;DHT22;4532;50.886;4.700;2023-02-11T05:27:55;9.30;99.90
8994;DHT22;4532;50.886;4.700;2023-02-11T05:30:24;9.40;99.90
8994;DHT22;4532;50.886;4.700;2023-02-11T05:32:52;9.40;99.90
8994;DHT22;4532;50.886;4.700;2023-02-11T05:35:22;9.40;99.90
8994;DHT22;4532;50.886;4.700;2023-02-11T05:37:49;9.30;99.90
8994;DHT22;4532;50.886;4.700;2023-02-11T05:40:16;9.40;99.90
8994;DHT22;4532;50.886;4.700;2023-02-11T05:42:48;9.40;99.90
8994;DHT22;4532;50.886;4.700;2023-02-11T05:45:15;9.40;99.90
8994;DHT22;4532;50.886;4.700;2023-02-11T05:47:44;9.40;99.90
8994;DHT22;4532;50.886;4.700;2023-02-11T05:50:14;9.40;99.90
8994;DHT22;4532;50.886;4.700;2023-02-11T05:52:43;9.40;99.90
8994;DHT22;4532;50.886;4.700;2023-02-11T05:55:10;9.40;99.90
8994;DHT22;4532;50.886;4.700;2023-02-11T05:57:43;9.40;99.90
8994;DHT22;4532;50.886;4.700;2023-02-11T06:00:10;9.40;99.90
8994;DHT22;4532;50.886;4.700;2023-02-11T06:02:42;9.40;99.90
8994;DHT22;4532;50.886;4.700;2023-02-11T06:05:12;9.40;99.90
8994;DHT22;4532;50.886;4.700;2023-02-11T06:07:41;9.40;99.90
8994;DHT22;4532;50.886;4.700;2023-02-11T06:10:09;9.40;99.90
8994;DHT22;4532;50.886;4.700;2023-02-11T06:12:43;9.40;99.90
8994;DHT22;4532;50.886;4.700;2023-02-11T06:15:13;9.40;99.90
8994;DHT22;4532;50.886;4.700;2023-02-11T06:17:40;9.40;99.90
8994;DHT22;4532;50.886;4.700;2023-02-11T06:20:10;9.50;99.90
8994;DHT22;4532;50.886;4.700;2023-02-11T06:22:37;9.50;99.90
8994;DHT22;4532;50.886;4.700;2023-02-11T06:25:04;9.50;99.90
8994;DHT22;4532;50.886;4.700;2023-02-11T06:27:36;9.50;99.90
8994;DHT22;4532;50.886;4.700;2023-02-11T06:30:06;9.50;99.90
8994;DHT22;4532;50.886;4.700;2023-02-11T06:32:33;9.50;99.90
8994;DHT22;4532;50.886;4.700;2023-02-11T06:35:13;9.50;99.90
8994;DHT22;4532;50.886;4.700;2023-02-11T06:37:41;9.50;99.90
8994;DHT22;4532;50.886;4.700;2023-02-11T06:40:10;9.50;99.90
8994;DHT22;4532;50.886;4.700;2023-02-11T06:42:42;9.50;99.90
8994;DHT22;4532;50.886;4.700;2023-02-11T06:45:09;9.60;99.90
8994;DHT22;4532;50.886;4.700;2023-02-11T06:47:40;9.60;99.90
8994;DHT22;4532;50.886;4.700;2023-02-11T06:50:11;9.60;99.90
8994;DHT22;4532;50.886;4.700;2023-02-11T06:52:41;9.60;99.90
8994;DHT22;4532;50.886;4.700;2023-02-11T06:55:08;9.60;99.90
8994;DHT22;4532;50.886;4.700;2023-02-11T06:57:42;9.60;99.90
8994;DHT22;4532;50.886;4.700;2023-02-11T07:00:12;9.60;99.90
8994;DHT22;4532;50.886;4.700;2023-02-11T07:02:41;9.60;99.90
8994;DHT22;4532;50.886;4.700;2023-02-11T07:05:11;9.70;99.90
8994;DHT22;4532;50.886;4.700;2023-02-11T07:07:38;9.70;99.90
8994;DHT22;4532;50.886;4.700;2023-02-11T07:10:08;9.70;99.90
8994;DHT22;4532;50.886;4.700;2023-02-11T07:12:40;9.70;99.90
8994;DHT22;4532;50.886;4.700;2023-02-11T07:15:07;9.70;99.90
8994;DHT22;4532;50.886;4.700;2023-02-11T07:17:34;9.70;99.90
8994;DHT22;4532;50.886;4.700;2023-02-11T07:20:03;9.70;99.90
8994;DHT22;4532;50.886;4.700;2023-02-11T07:22:32;9.70;99.90
8994;DHT22;4532;50.886;4.700;2023-02-11T07:24:59;9.80;99.90
8994;DHT22;4532;50.886;4.700;2023-02-11T07:27:29;9.70;99.90
8994;DHT22;4532;50.886;4.700;2023-02-11T07:30:00;9.80;99.90
8994;DHT22;4532;50.886;4.700;2023-02-11T07:32:30;9.70;99.90
8994;DHT22;4532;50.886;4.700;2023-02-11T07:34:57;9.70;99.90
8994;DHT22;4532;50.886;4.700;2023-02-11T07:37:25;9.70;99.90
8994;DHT22;4532;50.886;4.700;2023-02-11T07:39:52;9.70;99.90
8994;DHT22;4532;50.886;4.700;2023-02-11T07:42:21;9.70;99.90
8994;DHT22;4532;50.886;4.700;2023-02-11T07:44:49;9.70;99.90
8994;DHT22;4532;50.886;4.700;2023-02-11T07:47:20;9.70;99.90
8994;DHT22;4532;50.886;4.700;2023-02-11T07:49:48;9.70;99.90
8994;DHT22;4532;50.886;4.700;2023-02-11T07:52:15;9.70;99.90
8994;DHT22;4532;50.886;4.700;2023-02-11T07:54:42;9.70;99.90
8994;DHT22;4532;50.886;4.700;2023-02-11T07:57:11;9.70;99.90
8994;DHT22;4532;50.886;4.700;2023-02-11T07:59:38;9.70;99.90
8994;DHT22;4532;50.886;4.700;2023-02-11T08:02:08;9.80;99.90
8994;DHT22;4532;50.886;4.700;2023-02-11T08:04:35;9.80;99.90
8994;DHT22;4532;50.886;4.700;2023-02-11T08:07:04;9.80;99.90
8994;DHT22;4532;50.886;4.700;2023-02-11T08:09:34;9.80;99.90
8994;DHT22;4532;50.886;4.700;2023-02-11T08:12:04;9.80;99.90
8994;DHT22;4532;50.886;4.700;2023-02-11T08:14:31;9.80;99.90
8994;DHT22;4532;50.886;4.700;2023-02-11T08:16:58;9.80;99.90
8994;DHT22;4532;50.886;4.700;2023-02-11T08:19:28;9.80;99.90
8994;DHT22;4532;50.886;4.700;2023-02-11T08:21:56;9.90;99.90
8994;DHT22;4532;50.886;4.700;2023-02-11T08:24:26;9.90;99.90
8994;DHT22;4532;50.886;4.700;2023-02-11T08:26:58;9.90;99.90
8994;DHT22;4532;50.886;4.700;2023-02-11T08:29:25;9.90;99.90
8994;DHT22;4532;50.886;4.700;2023-02-11T08:31:54;9.90;99.90
8994;DHT22;4532;50.886;4.700;2023-02-11T08:34:24;9.90;99.90
8994;DHT22;4532;50.886;4.700;2023-02-11T08:36:51;9.90;99.90
8994;DHT22;4532;50.886;4.700;2023-02-11T08:39:20;10.00;99.90
8994;DHT22;4532;50.886;4.700;2023-02-11T08:42:12;10.00;99.90
8994;DHT22;4532;50.886;4.700;2023-02-11T08:44:42;10.00;99.90
8994;DHT22;4532;50.886;4.700;2023-02-11T08:47:13;10.00;99.90
8994;DHT22;4532;50.886;4.700;2023-02-11T08:49:42;10.00;99.90
8994;DHT22;4532;50.886;4.700;2023-02-11T08:52:11;10.00;99.90
8994;DHT22;4532;50.886;4.700;2023-02-11T08:54:38;10.00;99.90
8994;DHT22;4532;50.886;4.700;2023-02-11T08:57:05;10.00;99.90
8994;DHT22;4532;50.886;4.700;2023-02-11T08:59:32;10.10;99.90
8994;DHT22;4532;50.886;4.700;2023-02-11T09:02:03;10.10;99.90
8994;DHT22;4532;50.886;4.700;2023-02-11T09:04:30;10.10;99.90
8994;DHT22;4532;50.886;4.700;2023-02-11T09:07:01;10.10;99.90
8994;DHT22;4532;50.886;4.700;2023-02-11T09:09:31;10.10;99.90
8994;DHT22;4532;50.886;4.700;2023-02-11T09:12:01;10.10;99.90
8994;DHT22;4532;50.886;4.700;2023-02-11T09:14:28;10.10;99.90
8994;DHT22;4532;50.886;4.700;2023-02-11T09:16:58;10.20;99.90
8994;DHT22;4532;50.886;4.700;2023-02-11T09:19:28;10.20;99.90
8994;DHT22;4532;50.886;4.700;2023-02-11T09:21:58;10.20;99.90
8994;DHT22;4532;50.886;4.700;2023-02-11T09:24:28;10.20;99.90
8994;DHT22;4532;50.886;4.700;2023-02-11T09:26:57;10.20;99.90
8994;DHT22;4532;50.886;4.700;2023-02-11T09:29:26;10.30;99.90
8994;DHT22;4532;50.886;4.700;2023-02-11T09:31:54;10.30;99.90
8994;DHT22;4532;50.886;4.700;2023-02-11T09:34:25;10.30;99.90
8994;DHT22;4532;50.886;4.700;2023-02-11T09:36:53;10.30;99.90
8994;DHT22;4532;50.886;4.700;2023-02-11T09:39:27;10.40;99.90
8994;DHT22;4532;50.886;4.700;2023-02-11T09:44:36;10.50;99.90
8994;DHT22;4532;50.886;4.700;2023-02-11T09:47:23;10.40;99.90
8994;DHT22;4532;50.886;4.700;2023-02-11T09:52:29;10.40;99.90
8994;DHT22;4532;50.886;4.700;2023-02-11T09:55:11;10.40;99.90
8994;DHT22;4532;50.886;4.700;2023-02-11T09:57:40;10.50;99.90
8994;DHT22;4532;50.886;4.700;2023-02-11T10:03:47;10.50;99.90
8994;DHT22;4532;50.886;4.700;2023-02-11T10:12:02;10.60;99.90
8994;DHT22;4532;50.886;4.700;2023-02-11T10:14:54;10.60;99.90
8994;DHT22;4532;50.886;4.700;2023-02-11T10:22:31;10.70;99.90
8994;DHT22;4532;50.886;4.700;2023-02-11T10:27:52;10.70;99.90
8994;DHT22;4532;50.886;4.700;2023-02-11T10:30:31;10.80;99.90
8994;DHT22;4532;50.886;4.700;2023-02-11T10:36:05;10.80;99.90
8994;DHT22;4532;50.886;4.700;2023-02-11T10:38:35;10.80;99.90
8994;DHT22;4532;50.886;4.700;2023-02-11T10:41:03;10.80;99.90
8994;DHT22;4532;50.886;4.700;2023-02-11T10:43:33;10.90;99.90
8994;DHT22;4532;50.886;4.700;2023-02-11T10:46:03;10.90;99.90
8994;DHT22;4532;50.886;4.700;2023-02-11T10:53:40;11.00;99.90
8994;DHT22;4532;50.886;4.700;2023-02-11T10:56:22;11.00;99.90
8994;DHT22;4532;50.886;4.700;2023-02-11T10:59:03;11.00;99.90
8994;DHT22;4532;50.886;4.700;2023-02-11T11:01:47;11.00;99.90
8994;DHT22;4532;50.886;4.700;2023-02-11T11:04:41;11.00;99.90
8994;DHT22;4532;50.886;4.700;2023-02-11T11:07:21;11.10;99.90
8994;DHT22;4532;50.886;4.700;2023-02-11T11:09:53;11.10;99.90
8994;DHT22;4532;50.886;4.700;2023-02-11T11:12:35;11.10;99.90
8994;DHT22;4532;50.886;4.700;2023-02-11T11:17:38;11.10;99.90
8994;DHT22;4532;50.886;4.700;2023-02-11T11:20:19;11.10;99.90
8994;DHT22;4532;50.886;4.700;2023-02-11T11:23:14;11.20;99.90
8994;DHT22;4532;50.886;4.700;2023-02-11T11:25:45;11.20;99.90
8994;DHT22;4532;50.886;4.700;2023-02-11T11:28:25;11.20;99.90
8994;DHT22;4532;50.886;4.700;2023-02-11T11:30:56;11.20;99.90
8994;DHT22;4532;50.886;4.700;2023-02-11T11:33:32;11.30;99.90
8994;DHT22;4532;50.886;4.700;2023-02-11T11:38:30;11.30;99.90
8994;DHT22;4532;50.886;4.700;2023-02-11T11:43:58;11.30;99.90
8994;DHT22;4532;50.886;4.700;2023-02-11T11:46:32;11.30;99.90
8994;DHT22;4532;50.886;4.700;2023-02-11T11:52:18;11.30;99.90
8994;DHT22;4532;50.886;4.700;2023-02-11T11:54:51;11.30;99.90
8994;DHT22;4532;50.886;4.700;2023-02-11T11:57:28;11.30;99.90
8994;DHT22;4532;50.886;4.700;2023-02-11T11:59:59;11.30;99.90
8994;DHT22;4532;50.886;4.700;2023-02-11T12:16:48;11.50;99.90
8994;DHT22;4532;50.886;4.700;2023-02-11T12:22:49;11.50;99.90
8994;DHT22;4532;50.886;4.700;2023-02-11T12:25:29;11.50;99.90
8994;DHT22;4532;50.886;4.700;2023-02-11T12:31:00;11.60;99.90
8994;DHT22;4532;50.886;4.700;2023-02-11T12:39:33;11.60;99.90
8994;DHT22;4532;50.886;4.700;2023-02-11T12:42:32;11.70;99.90
8994;DHT22;4532;50.886;4.700;2023-02-11T12:50:49;11.70;99.90
8994;DHT22;4532;50.886;4.700;2023-02-11T12:59:09;11.70;99.90
8994;DHT22;4532;50.886;4.700;2023-02-11T13:01:42;11.70;99.90
8994;DHT22;4532;50.886;4.700;2023-02-11T13:04:40;11.70;99.90
8994;DHT22;4532;50.886;4.700;2023-02-11T13:07:24;11.70;99.90
8994;DHT22;4532;50.886;4.700;2023-02-11T13:10:10;11.70;99.90
8994;DHT22;4532;50.886;4.700;2023-02-11T13:12:48;11.70;99.90
8994;DHT22;4532;50.886;4.700;2023-02-11T13:15:37;11.70;99.90
8994;DHT22;4532;50.886;4.700;2023-02-11T13:18:38;11.70;99.90
8994;DHT22;4532;50.886;4.700;2023-02-11T13:24:01;11.70;99.90
8994;DHT22;4532;50.886;4.700;2023-02-11T13:32:15;11.80;99.90
8994;DHT22;4532;50.886;4.700;2023-02-11T13:42:27;11.90;99.90
8994;DHT22;4532;50.886;4.700;2023-02-11T13:44:57;11.90;99.90
8994;DHT22;4532;50.886;4.700;2023-02-11T13:47:31;11.90;99.90
8994;DHT22;4532;50.886;4.700;2023-02-11T13:50:01;11.90;99.90
8994;DHT22;4532;50.886;4.700;2023-02-11T13:52:38;12.00;99.90
8994;DHT22;4532;50.886;4.700;2023-02-11T13:57:40;12.00;99.90
8994;DHT22;4532;50.886;4.700;2023-02-11T14:14:26;12.00;99.90
8994;DHT22;4532;50.886;4.700;2023-02-11T14:22:12;12.00;99.90
8994;DHT22;4532;50.886;4.700;2023-02-11T14:24:50;12.00;99.90
8994;DHT22;4532;50.886;4.700;2023-02-11T14:30:28;12.00;99.90
8994;DHT22;4532;50.886;4.700;2023-02-11T14:35:39;12.00;99.90
8994;DHT22;4532;50.886;4.700;2023-02-11T14:38:34;12.00;99.90
8994;DHT22;4532;50.886;4.700;2023-02-11T14:41:32;12.00;99.90
8994;DHT22;4532;50.886;4.700;2023-02-11T14:44:17;11.90;99.90
8994;DHT22;4532;50.886;4.700;2023-02-11T14:46:51;11.90;99.90
8994;DHT22;4532;50.886;4.700;2023-02-11T14:52:00;11.90;99.90
8994;DHT22;4532;50.886;4.700;2023-02-11T14:54:32;11.90;99.90
8994;DHT22;4532;50.886;4.700;2023-02-11T14:57:18;11.90;99.90
8994;DHT22;4532;50.886;4.700;2023-02-11T14:59:58;12.00;99.90
8994;DHT22;4532;50.886;4.700;2023-02-11T15:02:36;12.00;99.90
8994;DHT22;4532;50.886;4.700;2023-02-11T15:05:20;12.00;99.90
8994;DHT22;4532;50.886;4.700;2023-02-11T15:08:02;12.00;99.90
8994;DHT22;4532;50.886;4.700;2023-02-11T15:10:34;12.00;99.90
8994;DHT22;4532;50.886;4.700;2023-02-11T15:13:04;12.00;99.90
8994;DHT22;4532;50.886;4.700;2023-02-11T15:15:36;12.00;99.90
8994;DHT22;4532;50.886;4.700;2023-02-11T15:18:18;12.00;99.90
8994;DHT22;4532;50.886;4.700;2023-02-11T15:20:53;12.00;99.90
8994;DHT22;4532;50.886;4.700;2023-02-11T15:23:24;12.00;99.90
8994;DHT22;4532;50.886;4.700;2023-02-11T15:25:55;12.00;99.90
8994;DHT22;4532;50.886;4.700;2023-02-11T15:28:32;12.00;99.90
8994;DHT22;4532;50.886;4.700;2023-02-11T15:31:05;12.00;99.90
8994;DHT22;4532;50.886;4.700;2023-02-11T15:33:39;12.00;99.90
8994;DHT22;4532;50.886;4.700;2023-02-11T15:36:15;11.90;99.90
8994;DHT22;4532;50.886;4.700;2023-02-11T15:38:42;11.90;99.90
8994;DHT22;4532;50.886;4.700;2023-02-11T15:41:33;11.90;99.90
8994;DHT22;4532;50.886;4.700;2023-02-11T15:44:25;11.90;99.90
8994;DHT22;4532;50.886;4.700;2023-02-11T15:46:56;11.80;99.90
8994;DHT22;4532;50.886;4.700;2023-02-11T15:49:26;11.80;99.90
8994;DHT22;4532;50.886;4.700;2023-02-11T15:51:56;11.80;99.90
8994;DHT22;4532;50.886;4.700;2023-02-11T15:54:26;11.90;99.90
8994;DHT22;4532;50.886;4.700;2023-02-11T15:57:05;11.90;99.90
8994;DHT22;4532;50.886;4.700;2023-02-11T15:59:38;11.90;99.90
8994;DHT22;4532;50.886;4.700;2023-02-11T16:02:07;11.90;99.90
8994;DHT22;4532;50.886;4.700;2023-02-11T16:04:43;11.80;99.90
8994;DHT22;4532;50.886;4.700;2023-02-11T16:07:37;11.80;99.90
8994;DHT22;4532;50.886;4.700;2023-02-11T16:10:37;11.80;99.90
8994;DHT22;4532;50.886;4.700;2023-02-11T16:21:05;11.80;99.90
8994;DHT22;4532;50.886;4.700;2023-02-11T16:23:39;11.80;99.90
8994;DHT22;4532;50.886;4.700;2023-02-11T16:28:50;11.70;99.90
8994;DHT22;4532;50.886;4.700;2023-02-11T16:31:20;11.80;99.90
8994;DHT22;4532;50.886;4.700;2023-02-11T16:33:47;11.70;99.90
8994;DHT22;4532;50.886;4.700;2023-02-11T16:36:17;11.70;99.90
8994;DHT22;4532;50.886;4.700;2023-02-11T16:38:47;11.70;99.90
8994;DHT22;4532;50.886;4.700;2023-02-11T16:41:15;11.70;99.90
8994;DHT22;4532;50.886;4.700;2023-02-11T16:43:46;11.70;99.90
8994;DHT22;4532;50.886;4.700;2023-02-11T16:46:14;11.70;99.90
8994;DHT22;4532;50.886;4.700;2023-02-11T16:48:44;11.70;99.90
8994;DHT22;4532;50.886;4.700;2023-02-11T16:51:12;11.70;99.90
8994;DHT22;4532;50.886;4.700;2023-02-11T16:53:44;11.70;99.90
8994;DHT22;4532;50.886;4.700;2023-02-11T16:56:16;11.70;99.90
8994;DHT22;4532;50.886;4.700;2023-02-11T16:58:44;11.70;99.90
8994;DHT22;4532;50.886;4.700;2023-02-11T17:01:12;11.70;99.90
8994;DHT22;4532;50.886;4.700;2023-02-11T17:03:40;11.70;99.90
8994;DHT22;4532;50.886;4.700;2023-02-11T17:06:10;11.70;99.90
8994;DHT22;4532;50.886;4.700;2023-02-11T17:08:39;11.70;99.90
8994;DHT22;4532;50.886;4.700;2023-02-11T17:11:09;11.70;99.90
8994;DHT22;4532;50.886;4.700;2023-02-11T17:13:36;11.70;99.90
8994;DHT22;4532;50.886;4.700;2023-02-11T17:16:18;11.70;99.90
8994;DHT22;4532;50.886;4.700;2023-02-11T17:18:49;11.70;99.90
8994;DHT22;4532;50.886;4.700;2023-02-11T17:21:18;11.70;99.90
8994;DHT22;4532;50.886;4.700;2023-02-11T17:23:54;11.70;99.90
8994;DHT22;4532;50.886;4.700;2023-02-11T17:26:21;11.60;99.90
8994;DHT22;4532;50.886;4.700;2023-02-11T17:28:48;11.60;99.90
8994;DHT22;4532;50.886;4.700;2023-02-11T17:31:18;11.60;99.90
8994;DHT22;4532;50.886;4.700;2023-02-11T17:33:51;11.60;99.90
8994;DHT22;4532;50.886;4.700;2023-02-11T17:36:18;11.60;99.90
8994;DHT22;4532;50.886;4.700;2023-02-11T17:38:47;11.60;99.90
8994;DHT22;4532;50.886;4.700;2023-02-11T17:41:14;11.60;99.90
8994;DHT22;4532;50.886;4.700;2023-02-11T17:43:42;11.60;99.90
8994;DHT22;4532;50.886;4.700;2023-02-11T17:46:10;11.60;99.90
8994;DHT22;4532;50.886;4.700;2023-02-11T17:48:40;11.60;99.90
8994;DHT22;4532;50.886;4.700;2023-02-11T17:51:25;11.60;99.90
8994;DHT22;4532;50.886;4.700;2023-02-11T17:53:56;11.60;99.90
8994;DHT22;4532;50.886;4.700;2023-02-11T17:56:30;11.60;99.90
8994;DHT22;4532;50.886;4.700;2023-02-11T17:59:00;11.60;99.90
8994;DHT22;4532;50.886;4.700;2023-02-11T18:01:33;11.60;99.90
8994;DHT22;4532;50.886;4.700;2023-02-11T18:04:03;11.50;99.90
8994;DHT22;4532;50.886;4.700;2023-02-11T18:06:31;11.50;99.90
8994;DHT22;4532;50.886;4.700;2023-02-11T18:09:02;11.50;99.90
8994;DHT22;4532;50.886;4.700;2023-02-11T18:11:35;11.50;99.90
8994;DHT22;4532;50.886;4.700;2023-02-11T18:14:04;11.50;99.90
8994;DHT22;4532;50.886;4.700;2023-02-11T18:16:37;11.50;99.90
8994;DHT22;4532;50.886;4.700;2023-02-11T18:19:09;11.50;99.90
8994;DHT22;4532;50.886;4.700;2023-02-11T18:21:39;11.50;99.90
8994;DHT22;4532;50.886;4.700;2023-02-11T18:24:06;11.50;99.90
8994;DHT22;4532;50.886;4.700;2023-02-11T18:26:34;11.50;99.90
8994;DHT22;4532;50.886;4.700;2023-02-11T18:29:02;11.50;99.90
8994;DHT22;4532;50.886;4.700;2023-02-11T18:31:31;11.50;99.90
8994;DHT22;4532;50.886;4.700;2023-02-11T18:34:02;11.50;99.90
8994;DHT22;4532;50.886;4.700;2023-02-11T18:36:32;11.50;99.90
8994;DHT22;4532;50.886;4.700;2023-02-11T18:38:59;11.40;99.90
8994;DHT22;4532;50.886;4.700;2023-02-11T18:41:26;11.50;99.90
8994;DHT22;4532;50.886;4.700;2023-02-11T18:43:56;11.50;99.90
8994;DHT22;4532;50.886;4.700;2023-02-11T18:46:24;11.40;99.90
8994;DHT22;4532;50.886;4.700;2023-02-11T18:48:56;11.40;99.90
8994;DHT22;4532;50.886;4.700;2023-02-11T18:51:26;11.50;99.90
8994;DHT22;4532;50.886;4.700;2023-02-11T18:53:56;11.40;99.90
8994;DHT22;4532;50.886;4.700;2023-02-11T18:56:25;11.40;99.90
8994;DHT22;4532;50.886;4.700;2023-02-11T18:58:57;11.40;99.90
8994;DHT22;4532;50.886;4.700;2023-02-11T19:01:30;11.40;99.90
8994;DHT22;4532;50.886;4.700;2023-02-11T19:03:58;11.40;99.90
8994;DHT22;4532;50.886;4.700;2023-02-11T19:06:34;11.40;99.90
8994;DHT22;4532;50.886;4.700;2023-02-11T19:09:07;11.40;99.90
8994;DHT22;4532;50.886;4.700;2023-02-11T19:11:39;11.40;99.90
8994;DHT22;4532;50.886;4.700;2023-02-11T19:16:45;11.40;99.90
8994;DHT22;4532;50.886;4.700;2023-02-11T19:19:15;11.40;99.90
8994;DHT22;4532;50.886;4.700;2023-02-11T19:21:45;11.40;99.90
8994;DHT22;4532;50.886;4.700;2023-02-11T19:24:15;11.40;99.90
8994;DHT22;4532;50.886;4.700;2023-02-11T19:26:48;11.40;99.90
8994;DHT22;4532;50.886;4.700;2023-02-11T19:29:16;11.30;99.90
8994;DHT22;4532;50.886;4.700;2023-02-11T19:31:44;11.30;99.90
8994;DHT22;4532;50.886;4.700;2023-02-11T19:34:15;11.30;99.90
8994;DHT22;4532;50.886;4.700;2023-02-11T19:36:46;11.30;99.90
8994;DHT22;4532;50.886;4.700;2023-02-11T19:39:19;11.30;99.90
8994;DHT22;4532;50.886;4.700;2023-02-11T19:41:46;11.30;99.90